Terminal Aerodrome Forecast
Issued by NWS

Home | Current Version | Previous Version | Text Only | Print | Product List | Glossary On
Versions: 1 2 3 4 5 6 7 8 9 10 11 12 13 14 15 16
000
FTUS45 KABQ 180500
TAFLVS
TAF
KLVS 180524Z 1806/1906 19009KT P6SM SKC
     FM181700 20014KT P6SM FEW250
     FM182000 20019G29KT P6SM BKN250
     FM190200 20013G19KT P6SM SCT150 BKN200=

USA.gov is the U.S. government's official web portal to all federal, state and local government web resources and services.